DETCC EDDP-LKPR
Flight info
| Callsign | DETCC |
|---|---|
| Flight time | N/A |
| Altitude | 7000 |
| Route | DRN2Q/08L DRN T620 LALUK DCT GOLOP |
| Aircraft | P28A/L-SDFRY/C |
Departure
| Time | 2026-05-07 18:49 |
|---|---|
| Airport | Leipzig/Halle Airport (EDDP) |
Arrival
| Time | N/A |
|---|---|
| Airport | Václav Havel Airport Prague (LKPR) |
| Time | Latitude | Longitude | Altitude | Speed | Heading |
|---|---|---|---|---|---|
| 2026-05-07 18:18 | 51.41848 | 12.22416 | 430 ft | 0 kts | 15° |
| 2026-05-07 18:39 | 51.41863 | 12.22423 | 425 ft | 5 kts | 16° |
| 2026-05-07 18:40 | 51.41897 | 12.22474 | 431 ft | 8 kts | 68° |
| 2026-05-07 18:40 | 51.41892 | 12.22563 | 429 ft | 8 kts | 105° |
| 2026-05-07 18:40 | 51.41866 | 12.22654 | 436 ft | 11 kts | 139° |
| 2026-05-07 18:40 | 51.41792 | 12.22658 | 439 ft | 13 kts | 196° |
| 2026-05-07 18:41 | 51.41718 | 12.22548 | 437 ft | 18 kts | 280° |
| 2026-05-07 18:41 | 51.41753 | 12.22338 | 426 ft | 20 kts | 286° |
| 2026-05-07 18:41 | 51.41789 | 12.22128 | 429 ft | 19 kts | 285° |
| 2026-05-07 18:41 | 51.41821 | 12.21937 | 429 ft | 18 kts | 283° |
| 2026-05-07 18:42 | 51.41857 | 12.21736 | 430 ft | 19 kts | 285° |
| 2026-05-07 18:42 | 51.41894 | 12.21514 | 431 ft | 22 kts | 283° |
| 2026-05-07 18:42 | 51.41939 | 12.21253 | 419 ft | 25 kts | 285° |
| 2026-05-07 18:42 | 51.41983 | 12.20992 | 418 ft | 17 kts | 287° |
| 2026-05-07 18:43 | 51.42051 | 12.20919 | 419 ft | 12 kts | 12° |
| 2026-05-07 18:43 | 51.42121 | 12.20950 | 420 ft | 10 kts | 15° |
| 2026-05-07 18:43 | 51.42200 | 12.20985 | 420 ft | 13 kts | 15° |
| 2026-05-07 18:43 | 51.42279 | 12.21019 | 426 ft | 12 kts | 14° |
| 2026-05-07 18:44 | 51.42378 | 12.21062 | 429 ft | 18 kts | 15° |
| 2026-05-07 18:44 | 51.42469 | 12.21102 | 429 ft | 0 kts | 16° |
| 2026-05-07 18:44 | 51.42494 | 12.21112 | 429 ft | 9 kts | 13° |
| 2026-05-07 18:44 | 51.42592 | 12.21154 | 429 ft | 19 kts | 14° |
| 2026-05-07 18:45 | 51.42737 | 12.21220 | 429 ft | 20 kts | 17° |
| 2026-05-07 18:45 | 51.42874 | 12.21279 | 429 ft | 13 kts | 19° |
| 2026-05-07 18:45 | 51.42963 | 12.21400 | 425 ft | 2 kts | 44° |
| 2026-05-07 18:47 | 51.42975 | 12.21418 | 425 ft | 7 kts | 44° |
| 2026-05-07 18:47 | 51.43038 | 12.21518 | 420 ft | 19 kts | 45° |
| 2026-05-07 18:48 | 51.43127 | 12.21708 | 427 ft | 22 kts | 76° |
| 2026-05-07 18:48 | 51.43156 | 12.22209 | 427 ft | 71 kts | 86° |
| 2026-05-07 18:48 | 51.43196 | 12.23126 | 575 ft | 87 kts | 83° |
| 2026-05-07 18:48 | 51.43237 | 12.24134 | 767 ft | 94 kts | 82° |
| 2026-05-07 18:49 | 51.43311 | 12.25214 | 947 ft | 99 kts | 80° |
| 2026-05-07 18:49 | 51.43381 | 12.26316 | 1167 ft | 100 kts | 85° |
| 2026-05-07 18:49 | 51.43413 | 12.27427 | 1396 ft | 100 kts | 84° |
| 2026-05-07 18:49 | 51.43454 | 12.28517 | 1626 ft | 99 kts | 84° |
| 2026-05-07 18:50 | 51.43500 | 12.29611 | 1846 ft | 98 kts | 83° |
| 2026-05-07 18:50 | 51.43548 | 12.30698 | 2065 ft | 97 kts | 83° |
| 2026-05-07 18:50 | 51.43597 | 12.31778 | 2269 ft | 97 kts | 83° |
| 2026-05-07 18:50 | 51.43646 | 12.32852 | 2467 ft | 96 kts | 83° |
| 2026-05-07 18:51 | 51.43694 | 12.33920 | 2658 ft | 96 kts | 83° |
| 2026-05-07 18:51 | 51.43743 | 12.34982 | 2858 ft | 95 kts | 83° |
| 2026-05-07 18:51 | 51.43790 | 12.36040 | 3048 ft | 95 kts | 84° |
| 2026-05-07 18:51 | 51.43839 | 12.37092 | 3241 ft | 95 kts | 83° |
| 2026-05-07 18:52 | 51.43885 | 12.38130 | 3424 ft | 94 kts | 83° |
| 2026-05-07 18:52 | 51.43934 | 12.39178 | 3603 ft | 94 kts | 83° |
| 2026-05-07 18:52 | 51.43982 | 12.40224 | 3787 ft | 94 kts | 83° |
| 2026-05-07 18:52 | 51.44028 | 12.41269 | 3966 ft | 94 kts | 83° |
| 2026-05-07 18:53 | 51.44076 | 12.42309 | 4160 ft | 93 kts | 83° |
| 2026-05-07 18:53 | 51.44123 | 12.43349 | 4343 ft | 94 kts | 83° |
| 2026-05-07 18:53 | 51.44170 | 12.44387 | 4519 ft | 93 kts | 83° |
| 2026-05-07 18:53 | 51.44216 | 12.45420 | 4721 ft | 93 kts | 83° |
| 2026-05-07 18:54 | 51.44264 | 12.46449 | 4897 ft | 93 kts | 83° |
| 2026-05-07 18:54 | 51.44308 | 12.47475 | 5075 ft | 92 kts | 83° |
| 2026-05-07 18:54 | 51.44357 | 12.48510 | 5230 ft | 93 kts | 84° |
| 2026-05-07 18:54 | 51.44403 | 12.49549 | 5409 ft | 93 kts | 84° |
| 2026-05-07 18:55 | 51.44448 | 12.50588 | 5573 ft | 94 kts | 84° |
| 2026-05-07 18:55 | 51.44495 | 12.51626 | 5743 ft | 93 kts | 84° |
| 2026-05-07 18:55 | 51.44436 | 12.52662 | 5885 ft | 96 kts | 110° |
| 2026-05-07 18:55 | 51.44055 | 12.53552 | 6056 ft | 96 kts | 122° |
| 2026-05-07 18:56 | 51.43702 | 12.54431 | 6219 ft | 94 kts | 120° |
| 2026-05-07 18:56 | 51.43345 | 12.55318 | 6374 ft | 95 kts | 120° |
| 2026-05-07 18:56 | 51.42988 | 12.56209 | 6530 ft | 95 kts | 120° |
| 2026-05-07 18:56 | 51.42633 | 12.57104 | 6680 ft | 95 kts | 120° |
| 2026-05-07 18:57 | 51.42278 | 12.58000 | 6835 ft | 95 kts | 120° |
| 2026-05-07 18:57 | 51.41926 | 12.58888 | 6988 ft | 94 kts | 120° |
| 2026-05-07 18:57 | 51.41578 | 12.59771 | 7126 ft | 94 kts | 120° |
| 2026-05-07 18:57 | 51.41243 | 12.60621 | 7256 ft | 95 kts | 120° |
| 2026-05-07 18:58 | 51.40890 | 12.61510 | 7416 ft | 94 kts | 120° |
| 2026-05-07 18:58 | 51.40540 | 12.62397 | 7558 ft | 94 kts | 120° |
| 2026-05-07 18:58 | 51.40201 | 12.63251 | 7634 ft | 86 kts | 120° |
| 2026-05-07 18:58 | 51.39903 | 12.64011 | 7652 ft | 77 kts | 119° |
| 2026-05-07 18:59 | 51.39640 | 12.64723 | 7622 ft | 73 kts | 113° |
| 2026-05-07 18:59 | 51.39547 | 12.65704 | 7260 ft | 99 kts | 88° |
| 2026-05-07 18:59 | 51.39139 | 12.66398 | 7146 ft | 99 kts | 163° |
| 2026-05-07 18:59 | 51.38635 | 12.66976 | 7057 ft | 94 kts | 131° |
| 2026-05-07 19:00 | 51.38164 | 12.67663 | 7010 ft | 87 kts | 147° |
| 2026-05-07 19:00 | 51.37656 | 12.68095 | 6988 ft | 79 kts | 134° |
| 2026-05-07 19:00 | 51.37403 | 12.68820 | 6964 ft | 73 kts | 107° |
| 2026-05-07 19:00 | 51.37219 | 12.69671 | 6828 ft | 93 kts | 111° |
| 2026-05-07 19:01 | 51.36923 | 12.70701 | 6812 ft | 108 kts | 111° |
| 2026-05-07 19:01 | 51.36626 | 12.71845 | 6826 ft | 114 kts | 111° |
| 2026-05-07 19:01 | 51.36336 | 12.72885 | 7046 ft | 102 kts | 117° |
| 2026-05-07 19:01 | 51.35961 | 12.73867 | 7040 ft | 103 kts | 119° |
| 2026-05-07 19:02 | 51.35590 | 12.74842 | 7030 ft | 103 kts | 120° |
| 2026-05-07 19:02 | 51.35207 | 12.75822 | 7033 ft | 104 kts | 121° |
| 2026-05-07 19:02 | 51.34816 | 12.76809 | 7034 ft | 105 kts | 120° |
| 2026-05-07 19:02 | 51.34422 | 12.77802 | 7038 ft | 106 kts | 121° |
| 2026-05-07 19:03 | 51.34027 | 12.78798 | 7036 ft | 106 kts | 121° |
| 2026-05-07 19:03 | 51.33629 | 12.79795 | 7038 ft | 106 kts | 121° |
| 2026-05-07 19:03 | 51.33232 | 12.80793 | 7038 ft | 107 kts | 121° |
| 2026-05-07 19:03 | 51.32832 | 12.81795 | 7038 ft | 107 kts | 121° |
| 2026-05-07 19:04 | 51.32432 | 12.82800 | 7035 ft | 107 kts | 121° |
| 2026-05-07 19:04 | 51.32032 | 12.83806 | 7037 ft | 107 kts | 121° |
| 2026-05-07 19:04 | 51.31629 | 12.84809 | 7034 ft | 107 kts | 121° |
| 2026-05-07 19:04 | 51.31174 | 12.85742 | 7038 ft | 108 kts | 128° |
| 2026-05-07 19:05 | 51.30707 | 12.86680 | 7034 ft | 108 kts | 127° |
| 2026-05-07 19:05 | 51.30243 | 12.87624 | 7033 ft | 108 kts | 127° |
| 2026-05-07 19:05 | 51.29779 | 12.88569 | 7035 ft | 108 kts | 127° |
| 2026-05-07 19:05 | 51.29317 | 12.89519 | 7035 ft | 108 kts | 127° |
| 2026-05-07 19:06 | 51.28857 | 12.90462 | 7034 ft | 108 kts | 127° |
| 2026-05-07 19:06 | 51.27933 | 12.92358 | 7032 ft | 108 kts | 127° |
| 2026-05-07 19:06 | 51.27473 | 12.93300 | 7030 ft | 108 kts | 128° |
| 2026-05-07 19:07 | 51.27012 | 12.94247 | 7030 ft | 108 kts | 128° |
| 2026-05-07 19:07 | 51.26550 | 12.95193 | 7029 ft | 108 kts | 128° |
| 2026-05-07 19:07 | 51.26090 | 12.96136 | 7029 ft | 107 kts | 128° |
| 2026-05-07 19:07 | 51.25629 | 12.97083 | 7029 ft | 108 kts | 128° |
| 2026-05-07 19:08 | 51.25164 | 12.98034 | 7030 ft | 109 kts | 128° |
| 2026-05-07 19:08 | 51.24702 | 12.98978 | 7030 ft | 109 kts | 128° |
| 2026-05-07 19:08 | 51.24235 | 12.99934 | 7027 ft | 109 kts | 128° |
| 2026-05-07 19:08 | 51.23767 | 13.00892 | 7030 ft | 110 kts | 128° |
| 2026-05-07 19:09 | 51.23296 | 13.01854 | 7029 ft | 110 kts | 128° |
| 2026-05-07 19:09 | 51.22826 | 13.02815 | 7025 ft | 110 kts | 129° |
| 2026-05-07 19:09 | 51.22354 | 13.03778 | 7027 ft | 110 kts | 129° |
| 2026-05-07 19:09 | 51.21882 | 13.04744 | 7025 ft | 111 kts | 129° |
| 2026-05-07 19:10 | 51.21407 | 13.05713 | 7026 ft | 111 kts | 129° |
| 2026-05-07 19:10 | 51.20932 | 13.06683 | 7025 ft | 111 kts | 129° |
| 2026-05-07 19:10 | 51.20455 | 13.07653 | 7028 ft | 111 kts | 129° |
| 2026-05-07 19:10 | 51.19978 | 13.08626 | 7026 ft | 111 kts | 129° |
| 2026-05-07 19:11 | 51.19501 | 13.09599 | 7026 ft | 111 kts | 129° |
| 2026-05-07 19:11 | 51.19025 | 13.10569 | 7027 ft | 111 kts | 129° |
| 2026-05-07 19:11 | 51.18548 | 13.11542 | 7027 ft | 111 kts | 130° |
| 2026-05-07 19:11 | 51.18071 | 13.12514 | 7023 ft | 111 kts | 130° |
| 2026-05-07 19:12 | 51.17593 | 13.13487 | 7023 ft | 111 kts | 130° |
| 2026-05-07 19:12 | 51.17115 | 13.14458 | 7022 ft | 111 kts | 130° |
| 2026-05-07 19:12 | 51.16644 | 13.15416 | 7023 ft | 111 kts | 130° |
| 2026-05-07 19:12 | 51.16165 | 13.16391 | 7022 ft | 112 kts | 130° |
| 2026-05-07 19:13 | 51.15686 | 13.17364 | 7024 ft | 112 kts | 130° |
| 2026-05-07 19:13 | 51.15206 | 13.18338 | 7021 ft | 112 kts | 130° |
| 2026-05-07 19:13 | 51.14726 | 13.19315 | 7020 ft | 112 kts | 130° |
| 2026-05-07 19:13 | 51.14244 | 13.20291 | 7019 ft | 112 kts | 130° |
| 2026-05-07 19:14 | 51.13764 | 13.21267 | 7020 ft | 112 kts | 130° |
| 2026-05-07 19:14 | 51.13283 | 13.22245 | 7020 ft | 112 kts | 130° |
| 2026-05-07 19:14 | 51.12800 | 13.23220 | 7016 ft | 112 kts | 130° |
| 2026-05-07 19:14 | 51.12324 | 13.24188 | 7016 ft | 111 kts | 130° |
| 2026-05-07 19:15 | 51.11847 | 13.25154 | 7016 ft | 111 kts | 130° |
| 2026-05-07 19:15 | 51.11369 | 13.26121 | 7016 ft | 111 kts | 131° |
| 2026-05-07 19:15 | 51.10890 | 13.27092 | 7012 ft | 112 kts | 131° |
| 2026-05-07 19:15 | 51.10409 | 13.28066 | 7016 ft | 112 kts | 131° |
| 2026-05-07 19:16 | 51.09924 | 13.29044 | 7018 ft | 112 kts | 131° |
| 2026-05-07 19:16 | 51.09442 | 13.30019 | 7023 ft | 112 kts | 131° |
| 2026-05-07 19:16 | 51.08959 | 13.30998 | 7019 ft | 112 kts | 131° |
| 2026-05-07 19:16 | 51.08478 | 13.31969 | 7022 ft | 112 kts | 130° |
| 2026-05-07 19:17 | 51.07998 | 13.32937 | 7020 ft | 112 kts | 131° |
| 2026-05-07 19:17 | 51.07518 | 13.33909 | 7021 ft | 112 kts | 131° |
| 2026-05-07 19:17 | 51.07037 | 13.34879 | 7019 ft | 112 kts | 131° |
| 2026-05-07 19:17 | 51.06558 | 13.35846 | 7021 ft | 111 kts | 131° |
| 2026-05-07 19:18 | 51.06077 | 13.36816 | 7020 ft | 112 kts | 131° |
| 2026-05-07 19:18 | 51.05595 | 13.37788 | 7017 ft | 112 kts | 130° |
| 2026-05-07 19:18 | 51.05119 | 13.38746 | 7017 ft | 112 kts | 131° |
| 2026-05-07 19:18 | 51.04637 | 13.39716 | 7016 ft | 112 kts | 131° |
| 2026-05-07 19:19 | 51.04157 | 13.40686 | 7018 ft | 112 kts | 131° |
| 2026-05-07 19:19 | 51.03675 | 13.41658 | 7018 ft | 112 kts | 131° |
| 2026-05-07 19:19 | 51.03193 | 13.42627 | 7015 ft | 112 kts | 131° |
| 2026-05-07 19:19 | 51.02711 | 13.43594 | 7015 ft | 111 kts | 131° |
| 2026-05-07 19:20 | 51.02232 | 13.44563 | 7014 ft | 111 kts | 131° |
| 2026-05-07 19:20 | 51.01752 | 13.45523 | 7015 ft | 111 kts | 131° |
| 2026-05-07 19:20 | 51.01272 | 13.46489 | 7014 ft | 111 kts | 131° |
| 2026-05-07 19:20 | 51.00792 | 13.47451 | 7016 ft | 112 kts | 131° |
| 2026-05-07 19:21 | 51.00309 | 13.48425 | 7015 ft | 112 kts | 131° |
| 2026-05-07 19:21 | 50.99824 | 13.49397 | 7015 ft | 112 kts | 131° |
| 2026-05-07 19:21 | 50.99502 | 13.50041 | 7014 ft | 113 kts | 131° |
| 2026-05-07 19:21 | 50.98850 | 13.51349 | 7015 ft | 113 kts | 131° |
| 2026-05-07 19:22 | 50.98528 | 13.51995 | 7015 ft | 113 kts | 131° |
| 2026-05-07 19:22 | 50.98041 | 13.52971 | 7015 ft | 113 kts | 131° |
| 2026-05-07 19:22 | 50.97553 | 13.53952 | 7015 ft | 113 kts | 131° |
| 2026-05-07 19:22 | 50.97065 | 13.54928 | 7014 ft | 113 kts | 131° |
| 2026-05-07 19:23 | 50.96579 | 13.55900 | 7019 ft | 112 kts | 130° |
| 2026-05-07 19:23 | 50.96090 | 13.56880 | 7014 ft | 113 kts | 131° |
| 2026-05-07 19:23 | 50.95602 | 13.57857 | 7015 ft | 112 kts | 131° |
| 2026-05-07 19:23 | 50.95119 | 13.58826 | 7015 ft | 112 kts | 131° |
| 2026-05-07 19:24 | 50.94635 | 13.59792 | 7014 ft | 111 kts | 131° |
| 2026-05-07 19:24 | 50.94159 | 13.60743 | 7010 ft | 111 kts | 131° |
| 2026-05-07 19:24 | 50.93675 | 13.61706 | 7011 ft | 112 kts | 131° |
| 2026-05-07 19:24 | 50.93189 | 13.62678 | 7011 ft | 113 kts | 131° |
| 2026-05-07 19:25 | 50.92700 | 13.63655 | 7013 ft | 113 kts | 131° |
| 2026-05-07 19:25 | 50.92212 | 13.64629 | 7010 ft | 113 kts | 131° |
| 2026-05-07 19:25 | 50.91724 | 13.65605 | 7009 ft | 113 kts | 131° |
| 2026-05-07 19:25 | 50.91233 | 13.66580 | 7011 ft | 113 kts | 131° |
| 2026-05-07 19:26 | 50.90745 | 13.67556 | 7009 ft | 113 kts | 131° |
| 2026-05-07 19:26 | 50.90255 | 13.68530 | 7005 ft | 113 kts | 131° |
| 2026-05-07 19:26 | 50.89768 | 13.69501 | 7006 ft | 113 kts | 131° |
| 2026-05-07 19:26 | 50.89280 | 13.70473 | 7003 ft | 112 kts | 131° |
| 2026-05-07 19:27 | 50.88800 | 13.71429 | 7009 ft | 112 kts | 131° |
| 2026-05-07 19:27 | 50.88315 | 13.72396 | 7008 ft | 112 kts | 131° |
| 2026-05-07 19:27 | 50.87829 | 13.73356 | 7004 ft | 112 kts | 131° |
| 2026-05-07 19:27 | 50.87345 | 13.74324 | 7004 ft | 112 kts | 131° |
| 2026-05-07 19:28 | 50.86861 | 13.75283 | 7006 ft | 111 kts | 131° |
| 2026-05-07 19:28 | 50.86378 | 13.76246 | 7001 ft | 111 kts | 131° |
| 2026-05-07 19:28 | 50.85897 | 13.77199 | 7034 ft | 108 kts | 132° |
| 2026-05-07 19:28 | 50.85438 | 13.78117 | 7070 ft | 107 kts | 132° |
| 2026-05-07 19:29 | 50.84967 | 13.79049 | 7069 ft | 109 kts | 131° |
| 2026-05-07 19:29 | 50.84489 | 13.79994 | 7071 ft | 110 kts | 132° |
| 2026-05-07 19:29 | 50.84006 | 13.80951 | 7071 ft | 112 kts | 131° |
| 2026-05-07 19:29 | 50.83525 | 13.81911 | 7072 ft | 111 kts | 131° |
| 2026-05-07 19:30 | 50.83050 | 13.82847 | 7070 ft | 110 kts | 132° |
| 2026-05-07 19:30 | 50.82570 | 13.83796 | 7069 ft | 111 kts | 131° |
| 2026-05-07 19:30 | 50.82087 | 13.84751 | 7069 ft | 111 kts | 132° |
| 2026-05-07 19:30 | 50.81598 | 13.85706 | 7065 ft | 112 kts | 135° |
| 2026-05-07 19:31 | 50.80940 | 13.86272 | 7063 ft | 107 kts | 173° |
| 2026-05-07 19:31 | 50.80205 | 13.86359 | 7062 ft | 106 kts | 179° |
| 2026-05-07 19:31 | 50.79470 | 13.86460 | 7058 ft | 106 kts | 180° |
| 2026-05-07 19:31 | 50.78735 | 13.86579 | 7062 ft | 106 kts | 177° |
| 2026-05-07 19:32 | 50.78001 | 13.86741 | 7062 ft | 107 kts | 175° |
| 2026-05-07 19:32 | 50.77267 | 13.86921 | 7061 ft | 107 kts | 175° |